sensor_id;sensor_type;location;lat;lon;timestamp;temperature;humidity
3268;DHT22;1646;52.450;13.326;2023-02-27T00:00:45;1.80;99.90
3268;DHT22;1646;52.450;13.326;2023-02-27T00:05:45;1.80;99.90
3268;DHT22;1646;52.450;13.326;2023-02-27T00:10:43;1.80;99.90
3268;DHT22;1646;52.450;13.326;2023-02-27T00:15:44;1.70;99.90
3268;DHT22;1646;52.450;13.326;2023-02-27T00:20:43;1.60;99.90
3268;DHT22;1646;52.450;13.326;2023-02-27T00:25:42;1.60;99.90
3268;DHT22;1646;52.450;13.326;2023-02-27T00:30:41;1.50;99.90
3268;DHT22;1646;52.450;13.326;2023-02-27T00:35:39;1.50;99.90
3268;DHT22;1646;52.450;13.326;2023-02-27T00:40:38;1.50;99.90
3268;DHT22;1646;52.450;13.326;2023-02-27T00:45:38;1.40;99.90
3268;DHT22;1646;52.450;13.326;2023-02-27T00:50:37;1.40;99.90
3268;DHT22;1646;52.450;13.326;2023-02-27T00:55:35;1.40;99.90
3268;DHT22;1646;52.450;13.326;2023-02-27T01:00:33;1.40;99.90
3268;DHT22;1646;52.450;13.326;2023-02-27T01:05:33;1.50;99.90
3268;DHT22;1646;52.450;13.326;2023-02-27T01:10:31;1.60;99.90
3268;DHT22;1646;52.450;13.326;2023-02-27T01:15:29;1.60;99.90
3268;DHT22;1646;52.450;13.326;2023-02-27T01:20:28;1.60;99.90
3268;DHT22;1646;52.450;13.326;2023-02-27T01:25:28;1.60;99.90
3268;DHT22;1646;52.450;13.326;2023-02-27T01:30:26;1.50;99.90
3268;DHT22;1646;52.450;13.326;2023-02-27T01:35:24;1.30;99.90
3268;DHT22;1646;52.450;13.326;2023-02-27T01:40:23;1.30;99.90
3268;DHT22;1646;52.450;13.326;2023-02-27T01:45:31;1.20;99.90
3268;DHT22;1646;52.450;13.326;2023-02-27T01:50:30;1.30;99.90
3268;DHT22;1646;52.450;13.326;2023-02-27T01:55:31;1.30;99.90
3268;DHT22;1646;52.450;13.326;2023-02-27T02:00:32;1.30;99.90
3268;DHT22;1646;52.450;13.326;2023-02-27T02:05:30;1.30;99.90
3268;DHT22;1646;52.450;13.326;2023-02-27T02:10:29;1.20;99.90
3268;DHT22;1646;52.450;13.326;2023-02-27T02:15:34;1.10;99.90
3268;DHT22;1646;52.450;13.326;2023-02-27T02:20:52;1.00;99.90
3268;DHT22;1646;52.450;13.326;2023-02-27T02:26:14;0.90;99.90
3268;DHT22;1646;52.450;13.326;2023-02-27T02:31:45;1.00;99.90
3268;DHT22;1646;52.450;13.326;2023-02-27T02:37:37;1.10;99.90
3268;DHT22;1646;52.450;13.326;2023-02-27T02:42:46;1.10;99.90
3268;DHT22;1646;52.450;13.326;2023-02-27T02:48:00;1.10;99.90
3268;DHT22;1646;52.450;13.326;2023-02-27T02:53:05;1.10;99.90
3268;DHT22;1646;52.450;13.326;2023-02-27T02:58:11;1.30;99.90
3268;DHT22;1646;52.450;13.326;2023-02-27T03:03:17;1.20;99.90
3268;DHT22;1646;52.450;13.326;2023-02-27T03:08:21;1.20;99.90
3268;DHT22;1646;52.450;13.326;2023-02-27T03:13:26;1.20;99.90
3268;DHT22;1646;52.450;13.326;2023-02-27T03:18:31;1.20;99.90
3268;DHT22;1646;52.450;13.326;2023-02-27T03:23:35;1.20;99.90
3268;DHT22;1646;52.450;13.326;2023-02-27T03:28:39;1.20;99.90
3268;DHT22;1646;52.450;13.326;2023-02-27T03:33:46;1.10;99.90
3268;DHT22;1646;52.450;13.326;2023-02-27T03:38:51;1.10;99.90
3268;DHT22;1646;52.450;13.326;2023-02-27T03:44:01;1.10;99.90
3268;DHT22;1646;52.450;13.326;2023-02-27T03:49:02;1.10;99.90
3268;DHT22;1646;52.450;13.326;2023-02-27T03:54:05;1.10;99.90
3268;DHT22;1646;52.450;13.326;2023-02-27T03:59:08;1.00;99.90
3268;DHT22;1646;52.450;13.326;2023-02-27T04:04:15;0.90;99.90
3268;DHT22;1646;52.450;13.326;2023-02-27T04:09:42;0.90;99.90
3268;DHT22;1646;52.450;13.326;2023-02-27T04:14:55;0.80;99.90
3268;DHT22;1646;52.450;13.326;2023-02-27T04:20:11;0.70;99.90
3268;DHT22;1646;52.450;13.326;2023-02-27T04:25:33;0.70;99.90
3268;DHT22;1646;52.450;13.326;2023-02-27T04:30:41;0.70;99.90
3268;DHT22;1646;52.450;13.326;2023-02-27T04:35:48;0.70;99.90
3268;DHT22;1646;52.450;13.326;2023-02-27T04:40:51;0.80;99.90
3268;DHT22;1646;52.450;13.326;2023-02-27T04:45:53;0.90;99.90
3268;DHT22;1646;52.450;13.326;2023-02-27T04:50:56;0.80;99.90
3268;DHT22;1646;52.450;13.326;2023-02-27T04:56:00;0.70;99.90
3268;DHT22;1646;52.450;13.326;2023-02-27T05:01:03;0.60;99.90
3268;DHT22;1646;52.450;13.326;2023-02-27T05:06:02;0.50;99.90
3268;DHT22;1646;52.450;13.326;2023-02-27T05:11:06;0.40;99.90
3268;DHT22;1646;52.450;13.326;2023-02-27T05:16:10;0.30;99.90
3268;DHT22;1646;52.450;13.326;2023-02-27T05:21:22;0.30;99.90
3268;DHT22;1646;52.450;13.326;2023-02-27T05:26:28;0.10;99.90
3268;DHT22;1646;52.450;13.326;2023-02-27T05:31:36;0.10;99.90
3268;DHT22;1646;52.450;13.326;2023-02-27T05:36:42;0.10;99.90
3268;DHT22;1646;52.450;13.326;2023-02-27T05:41:46;0.10;99.90
3268;DHT22;1646;52.450;13.326;2023-02-27T05:46:52;0.10;99.90
3268;DHT22;1646;52.450;13.326;2023-02-27T05:51:52;0.10;99.90
3268;DHT22;1646;52.450;13.326;2023-02-27T05:56:53;0.20;99.90
3268;DHT22;1646;52.450;13.326;2023-02-27T06:01:55;0.20;99.90
3268;DHT22;1646;52.450;13.326;2023-02-27T06:06:53;0.10;99.90
3268;DHT22;1646;52.450;13.326;2023-02-27T06:11:53;0.10;99.90
3268;DHT22;1646;52.450;13.326;2023-02-27T06:16:51;0.20;99.90
3268;DHT22;1646;52.450;13.326;2023-02-27T06:21:51;0.20;99.90
3268;DHT22;1646;52.450;13.326;2023-02-27T06:26:49;0.10;99.90
3268;DHT22;1646;52.450;13.326;2023-02-27T06:31:47;0.10;99.90
3268;DHT22;1646;52.450;13.326;2023-02-27T06:36:45;0.20;99.90
3268;DHT22;1646;52.450;13.326;2023-02-27T06:41:45;0.20;99.90
3268;DHT22;1646;52.450;13.326;2023-02-27T06:46:44;0.20;99.90
3268;DHT22;1646;52.450;13.326;2023-02-27T06:51:42;0.10;99.90
3268;DHT22;1646;52.450;13.326;2023-02-27T06:56:41;0.20;99.90
3268;DHT22;1646;52.450;13.326;2023-02-27T07:01:40;0.20;99.90
3268;DHT22;1646;52.450;13.326;2023-02-27T07:06:38;0.20;99.90
3268;DHT22;1646;52.450;13.326;2023-02-27T07:11:57;0.40;99.90
3268;DHT22;1646;52.450;13.326;2023-02-27T07:16:56;0.60;99.90
3268;DHT22;1646;52.450;13.326;2023-02-27T07:21:59;0.80;99.90
3268;DHT22;1646;52.450;13.326;2023-02-27T07:26:57;1.00;99.90
3268;DHT22;1646;52.450;13.326;2023-02-27T07:31:57;1.10;99.90
3268;DHT22;1646;52.450;13.326;2023-02-27T07:36:55;1.20;99.90
3268;DHT22;1646;52.450;13.326;2023-02-27T07:41:53;1.30;99.90
3268;DHT22;1646;52.450;13.326;2023-02-27T07:46:52;1.50;99.90
3268;DHT22;1646;52.450;13.326;2023-02-27T07:51:51;1.50;99.90
3268;DHT22;1646;52.450;13.326;2023-02-27T07:56:49;1.50;99.90
3268;DHT22;1646;52.450;13.326;2023-02-27T08:01:48;1.60;99.90
3268;DHT22;1646;52.450;13.326;2023-02-27T08:06:46;1.70;99.90
3268;DHT22;1646;52.450;13.326;2023-02-27T08:11:46;1.90;99.90
3268;DHT22;1646;52.450;13.326;2023-02-27T08:16:45;2.10;99.90
3268;DHT22;1646;52.450;13.326;2023-02-27T08:21:43;2.30;99.90
3268;DHT22;1646;52.450;13.326;2023-02-27T08:26:41;2.50;99.90
3268;DHT22;1646;52.450;13.326;2023-02-27T08:31:41;2.80;99.90
3268;DHT22;1646;52.450;13.326;2023-02-27T08:36:39;3.10;99.90
3268;DHT22;1646;52.450;13.326;2023-02-27T08:41:38;3.30;99.90
3268;DHT22;1646;52.450;13.326;2023-02-27T08:46:36;3.50;99.90
3268;DHT22;1646;52.450;13.326;2023-02-27T08:51:36;3.70;99.90
3268;DHT22;1646;52.450;13.326;2023-02-27T08:56:34;3.90;99.90
3268;DHT22;1646;52.450;13.326;2023-02-27T09:01:32;4.00;99.90
3268;DHT22;1646;52.450;13.326;2023-02-27T09:06:32;4.40;99.90
3268;DHT22;1646;52.450;13.326;2023-02-27T09:11:33;4.70;99.90
3268;DHT22;1646;52.450;13.326;2023-02-27T09:16:34;5.20;99.90
3268;DHT22;1646;52.450;13.326;2023-02-27T09:21:32;5.70;99.90
3268;DHT22;1646;52.450;13.326;2023-02-27T09:26:34;5.80;99.90
3268;DHT22;1646;52.450;13.326;2023-02-27T09:31:41;6.10;99.90
3268;DHT22;1646;52.450;13.326;2023-02-27T09:36:40;6.40;99.90
3268;DHT22;1646;52.450;13.326;2023-02-27T09:41:52;6.80;99.90
3268;DHT22;1646;52.450;13.326;2023-02-27T09:46:51;7.00;99.90
3268;DHT22;1646;52.450;13.326;2023-02-27T09:51:51;7.50;99.90
3268;DHT22;1646;52.450;13.326;2023-02-27T09:56:57;7.50;99.90
3268;DHT22;1646;52.450;13.326;2023-02-27T10:01:59;7.30;99.90
3268;DHT22;1646;52.450;13.326;2023-02-27T10:07:08;6.80;99.90
3268;DHT22;1646;52.450;13.326;2023-02-27T10:12:18;6.60;99.90
3268;DHT22;1646;52.450;13.326;2023-02-27T10:17:24;6.50;99.90
3268;DHT22;1646;52.450;13.326;2023-02-27T10:22:26;6.50;99.90
3268;DHT22;1646;52.450;13.326;2023-02-27T10:27:26;6.70;99.90
3268;DHT22;1646;52.450;13.326;2023-02-27T10:32:27;6.80;99.90
3268;DHT22;1646;52.450;13.326;2023-02-27T10:37:28;6.80;99.90
3268;DHT22;1646;52.450;13.326;2023-02-27T10:42:31;6.50;99.90
3268;DHT22;1646;52.450;13.326;2023-02-27T10:47:31;6.30;99.90
3268;DHT22;1646;52.450;13.326;2023-02-27T10:52:30;6.70;99.90
3268;DHT22;1646;52.450;13.326;2023-02-27T10:57:31;6.70;99.90
3268;DHT22;1646;52.450;13.326;2023-02-27T11:02:35;6.80;99.90
3268;DHT22;1646;52.450;13.326;2023-02-27T11:07:37;6.80;99.90
3268;DHT22;1646;52.450;13.326;2023-02-27T11:12:37;6.70;99.90
3268;DHT22;1646;52.450;13.326;2023-02-27T11:17:36;6.90;99.90
3268;DHT22;1646;52.450;13.326;2023-02-27T11:22:34;7.60;99.90
3268;DHT22;1646;52.450;13.326;2023-02-27T11:27:32;9.70;99.90
3268;DHT22;1646;52.450;13.326;2023-02-27T11:32:41;10.90;93.30
3268;DHT22;1646;52.450;13.326;2023-02-27T11:37:40;10.10;90.20
3268;DHT22;1646;52.450;13.326;2023-02-27T11:42:43;9.90;90.50
3268;DHT22;1646;52.450;13.326;2023-02-27T11:47:47;9.40;93.10
3268;DHT22;1646;52.450;13.326;2023-02-27T11:52:48;8.70;94.70
3268;DHT22;1646;52.450;13.326;2023-02-27T11:57:51;8.00;92.90
3268;DHT22;1646;52.450;13.326;2023-02-27T12:02:58;7.60;94.20
3268;DHT22;1646;52.450;13.326;2023-02-27T12:08:01;7.10;93.00
3268;DHT22;1646;52.450;13.326;2023-02-27T12:13:03;6.90;92.70
3268;DHT22;1646;52.450;13.326;2023-02-27T12:18:11;7.30;94.90
3268;DHT22;1646;52.450;13.326;2023-02-27T12:23:17;8.80;92.90
3268;DHT22;1646;52.450;13.326;2023-02-27T12:28:31;8.80;90.30
3268;DHT22;1646;52.450;13.326;2023-02-27T12:33:41;8.80;92.20
3268;DHT22;1646;52.450;13.326;2023-02-27T12:38:41;9.20;90.20
3268;DHT22;1646;52.450;13.326;2023-02-27T12:43:42;8.70;90.50
3268;DHT22;1646;52.450;13.326;2023-02-27T12:48:55;8.20;91.30
3268;DHT22;1646;52.450;13.326;2023-02-27T12:54:18;7.90;91.60
3268;DHT22;1646;52.450;13.326;2023-02-27T12:59:30;7.10;90.00
3268;DHT22;1646;52.450;13.326;2023-02-27T13:04:40;6.80;91.90
3268;DHT22;1646;52.450;13.326;2023-02-27T13:09:44;6.80;92.30
3268;DHT22;1646;52.450;13.326;2023-02-27T13:14:46;6.60;92.20
3268;DHT22;1646;52.450;13.326;2023-02-27T13:19:51;6.50;92.80
3268;DHT22;1646;52.450;13.326;2023-02-27T13:24:50;6.40;90.70
3268;DHT22;1646;52.450;13.326;2023-02-27T13:29:58;6.30;91.00
3268;DHT22;1646;52.450;13.326;2023-02-27T13:35:11;6.30;90.50
3268;DHT22;1646;52.450;13.326;2023-02-27T13:40:33;6.40;91.60
3268;DHT22;1646;52.450;13.326;2023-02-27T13:45:53;6.50;91.60
3268;DHT22;1646;52.450;13.326;2023-02-27T13:50:54;6.60;91.00
3268;DHT22;1646;52.450;13.326;2023-02-27T13:55:56;6.70;92.50
3268;DHT22;1646;52.450;13.326;2023-02-27T14:00:57;6.80;92.70
3268;DHT22;1646;52.450;13.326;2023-02-27T14:06:01;6.80;93.10
3268;DHT22;1646;52.450;13.326;2023-02-27T14:11:12;6.90;92.90
3268;DHT22;1646;52.450;13.326;2023-02-27T14:16:13;6.90;92.50
3268;DHT22;1646;52.450;13.326;2023-02-27T14:21:56;7.00;91.80
3268;DHT22;1646;52.450;13.326;2023-02-27T14:26:56;6.80;89.40
3268;DHT22;1646;52.450;13.326;2023-02-27T14:31:55;6.70;90.10
3268;DHT22;1646;52.450;13.326;2023-02-27T14:36:57;6.60;90.70
3268;DHT22;1646;52.450;13.326;2023-02-27T14:42:07;6.50;90.80
3268;DHT22;1646;52.450;13.326;2023-02-27T14:47:15;6.50;90.80
3268;DHT22;1646;52.450;13.326;2023-02-27T14:52:20;6.40;89.90
3268;DHT22;1646;52.450;13.326;2023-02-27T14:57:20;6.30;90.80
3268;DHT22;1646;52.450;13.326;2023-02-27T15:02:22;6.20;90.60
3268;DHT22;1646;52.450;13.326;2023-02-27T15:07:23;6.20;90.90
3268;DHT22;1646;52.450;13.326;2023-02-27T15:12:24;6.30;91.00
3268;DHT22;1646;52.450;13.326;2023-02-27T15:17:25;6.20;91.30
3268;DHT22;1646;52.450;13.326;2023-02-27T15:22:27;6.20;91.60
3268;DHT22;1646;52.450;13.326;2023-02-27T15:27:35;6.30;91.50
3268;DHT22;1646;52.450;13.326;2023-02-27T15:32:35;6.20;90.80
3268;DHT22;1646;52.450;13.326;2023-02-27T15:37:37;6.10;91.40
3268;DHT22;1646;52.450;13.326;2023-02-27T15:42:35;6.10;91.60
3268;DHT22;1646;52.450;13.326;2023-02-27T15:47:34;6.10;91.70
3268;DHT22;1646;52.450;13.326;2023-02-27T15:52:41;5.90;92.00
3268;DHT22;1646;52.450;13.326;2023-02-27T15:57:41;5.90;92.70
3268;DHT22;1646;52.450;13.326;2023-02-27T16:02:58;6.00;93.00
3268;DHT22;1646;52.450;13.326;2023-02-27T16:07:58;6.00;93.40
3268;DHT22;1646;52.450;13.326;2023-02-27T16:12:57;6.10;93.20
3268;DHT22;1646;52.450;13.326;2023-02-27T16:17:58;6.10;93.40
3268;DHT22;1646;52.450;13.326;2023-02-27T16:23:05;6.00;93.40
3268;DHT22;1646;52.450;13.326;2023-02-27T16:28:03;6.00;93.70
3268;DHT22;1646;52.450;13.326;2023-02-27T16:33:02;6.00;93.20
3268;DHT22;1646;52.450;13.326;2023-02-27T16:38:01;5.90;93.50
3268;DHT22;1646;52.450;13.326;2023-02-27T16:43:00;5.90;93.50
3268;DHT22;1646;52.450;13.326;2023-02-27T16:47:59;5.80;93.60
3268;DHT22;1646;52.450;13.326;2023-02-27T16:52:58;5.70;93.50
3268;DHT22;1646;52.450;13.326;2023-02-27T16:57:57;5.70;93.90
3268;DHT22;1646;52.450;13.326;2023-02-27T17:02:56;5.70;93.70
3268;DHT22;1646;52.450;13.326;2023-02-27T17:07:55;5.80;93.80
3268;DHT22;1646;52.450;13.326;2023-02-27T17:12:53;5.80;93.60
3268;DHT22;1646;52.450;13.326;2023-02-27T17:17:51;5.70;93.90
3268;DHT22;1646;52.450;13.326;2023-02-27T17:22:51;5.70;94.50
3268;DHT22;1646;52.450;13.326;2023-02-27T17:27:50;5.70;94.20
3268;DHT22;1646;52.450;13.326;2023-02-27T17:32:48;5.70;94.70
3268;DHT22;1646;52.450;13.326;2023-02-27T17:37:46;5.70;94.60
3268;DHT22;1646;52.450;13.326;2023-02-27T17:42:46;5.70;94.40
3268;DHT22;1646;52.450;13.326;2023-02-27T17:47:44;5.70;94.50
3268;DHT22;1646;52.450;13.326;2023-02-27T17:52:42;5.60;94.40
3268;DHT22;1646;52.450;13.326;2023-02-27T17:57:41;5.60;94.70
3268;DHT22;1646;52.450;13.326;2023-02-27T18:02:42;5.60;95.00
3268;DHT22;1646;52.450;13.326;2023-02-27T18:07:41;5.60;95.20
3268;DHT22;1646;52.450;13.326;2023-02-27T18:12:39;5.60;95.70
3268;DHT22;1646;52.450;13.326;2023-02-27T18:17:37;5.60;95.40
3268;DHT22;1646;52.450;13.326;2023-02-27T18:22:37;5.60;95.70
3268;DHT22;1646;52.450;13.326;2023-02-27T18:27:35;5.60;96.00
3268;DHT22;1646;52.450;13.326;2023-02-27T18:32:34;5.60;96.00
3268;DHT22;1646;52.450;13.326;2023-02-27T18:37:33;5.60;95.90
3268;DHT22;1646;52.450;13.326;2023-02-27T18:42:33;5.50;96.10
3268;DHT22;1646;52.450;13.326;2023-02-27T18:47:31;5.60;96.50
3268;DHT22;1646;52.450;13.326;2023-02-27T18:52:29;5.60;96.70
3268;DHT22;1646;52.450;13.326;2023-02-27T18:57:28;5.60;96.90
3268;DHT22;1646;52.450;13.326;2023-02-27T19:02:27;5.60;96.90
3268;DHT22;1646;52.450;13.326;2023-02-27T19:07:28;5.60;97.10
3268;DHT22;1646;52.450;13.326;2023-02-27T19:12:26;5.60;97.30
3268;DHT22;1646;52.450;13.326;2023-02-27T19:17:25;5.60;97.90
3268;DHT22;1646;52.450;13.326;2023-02-27T19:22:24;5.60;98.20
3268;DHT22;1646;52.450;13.326;2023-02-27T19:27:25;5.60;98.00
3268;DHT22;1646;52.450;13.326;2023-02-27T19:32:23;5.50;97.90
3268;DHT22;1646;52.450;13.326;2023-02-27T19:37:23;5.40;98.00
3268;DHT22;1646;52.450;13.326;2023-02-27T19:42:22;5.40;98.50
3268;DHT22;1646;52.450;13.326;2023-02-27T19:47:20;5.30;98.20
3268;DHT22;1646;52.450;13.326;2023-02-27T19:52:18;5.30;98.50
3268;DHT22;1646;52.450;13.326;2023-02-27T19:57:18;5.30;98.50
3268;DHT22;1646;52.450;13.326;2023-02-27T20:02:17;5.30;98.40
3268;DHT22;1646;52.450;13.326;2023-02-27T20:07:16;5.30;98.90
3268;DHT22;1646;52.450;13.326;2023-02-27T20:12:19;5.20;99.00
3268;DHT22;1646;52.450;13.326;2023-02-27T20:17:17;5.20;99.00
3268;DHT22;1646;52.450;13.326;2023-02-27T20:22:16;5.10;99.00
3268;DHT22;1646;52.450;13.326;2023-02-27T20:27:14;5.10;99.00
3268;DHT22;1646;52.450;13.326;2023-02-27T20:32:13;5.00;99.20
3268;DHT22;1646;52.450;13.326;2023-02-27T20:37:12;4.90;99.70
3268;DHT22;1646;52.450;13.326;2023-02-27T20:42:10;5.00;99.60
3268;DHT22;1646;52.450;13.326;2023-02-27T20:47:09;4.90;99.40
3268;DHT22;1646;52.450;13.326;2023-02-27T20:52:09;4.90;99.90
3268;DHT22;1646;52.450;13.326;2023-02-27T20:57:07;4.90;99.90
3268;DHT22;1646;52.450;13.326;2023-02-27T21:02:07;4.90;99.90
3268;DHT22;1646;52.450;13.326;2023-02-27T21:07:06;4.90;99.90
3268;DHT22;1646;52.450;13.326;2023-02-27T21:12:07;4.90;99.90
3268;DHT22;1646;52.450;13.326;2023-02-27T21:17:05;4.90;99.90
3268;DHT22;1646;52.450;13.326;2023-02-27T21:22:03;4.90;99.90
3268;DHT22;1646;52.450;13.326;2023-02-27T21:27:02;4.90;99.90
3268;DHT22;1646;52.450;13.326;2023-02-27T21:32:01;4.80;99.90
3268;DHT22;1646;52.450;13.326;2023-02-27T21:37:00;4.80;99.90
3268;DHT22;1646;52.450;13.326;2023-02-27T21:42:02;4.80;99.90
3268;DHT22;1646;52.450;13.326;2023-02-27T21:47:01;4.80;99.90
3268;DHT22;1646;52.450;13.326;2023-02-27T21:52:06;4.80;99.90
3268;DHT22;1646;52.450;13.326;2023-02-27T21:57:04;4.90;99.90
3268;DHT22;1646;52.450;13.326;2023-02-27T22:02:04;4.80;99.90
3268;DHT22;1646;52.450;13.326;2023-02-27T22:07:02;4.80;99.90
3268;DHT22;1646;52.450;13.326;2023-02-27T22:12:01;4.80;99.90
3268;DHT22;1646;52.450;13.326;2023-02-27T22:16:59;4.90;99.90
3268;DHT22;1646;52.450;13.326;2023-02-27T22:21:59;4.90;99.90
3268;DHT22;1646;52.450;13.326;2023-02-27T22:26:57;4.90;99.90
3268;DHT22;1646;52.450;13.326;2023-02-27T22:31:55;4.90;99.90
3268;DHT22;1646;52.450;13.326;2023-02-27T22:36:54;4.90;99.90
3268;DHT22;1646;52.450;13.326;2023-02-27T22:41:53;4.90;99.90
3268;DHT22;1646;52.450;13.326;2023-02-27T22:46:54;4.80;99.90
3268;DHT22;1646;52.450;13.326;2023-02-27T22:51:53;4.80;99.90
3268;DHT22;1646;52.450;13.326;2023-02-27T22:56:53;4.70;99.90
3268;DHT22;1646;52.450;13.326;2023-02-27T23:01:53;4.70;99.90
3268;DHT22;1646;52.450;13.326;2023-02-27T23:06:53;4.70;99.90
3268;DHT22;1646;52.450;13.326;2023-02-27T23:11:53;4.70;99.90
3268;DHT22;1646;52.450;13.326;2023-02-27T23:16:52;4.60;99.90
3268;DHT22;1646;52.450;13.326;2023-02-27T23:21:50;4.60;99.90
3268;DHT22;1646;52.450;13.326;2023-02-27T23:26:50;4.60;99.90
3268;DHT22;1646;52.450;13.326;2023-02-27T23:31:50;4.60;99.90
3268;DHT22;1646;52.450;13.326;2023-02-27T23:36:48;4.60;99.90
3268;DHT22;1646;52.450;13.326;2023-02-27T23:41:47;4.60;99.90
3268;DHT22;1646;52.450;13.326;2023-02-27T23:46:46;4.50;99.90
3268;DHT22;1646;52.450;13.326;2023-02-27T23:51:45;4.60;99.90
3268;DHT22;1646;52.450;13.326;2023-02-27T23:56:45;4.60;99.90
